Denio, Nevada
Current Conditions -  °F | °C
As of 8:56 AM on Tuesday 21 Oct 2014 (Local Time) from KWMC Reporting Station
Clear Clear  
Wind Chill: 41°   Ceiling: Unl
Heat Index: 47°   Visibility: 10mi
Dew Point: 34°   Wind: 15mph
Humidity: 61%   Direction: 230°SW
Pressure: 30.12"   Gusts: NA
Location:  41.99°N, 118.63°W
Report Text: KWMC 211556Z AUTO 23013KT 10SM CLR 08/01 A3012 RMK AO2 SLP177 T00830011
Loading
Personal Weather Stations






























Interactive Weather Map
Tropical Storm Tracking
New forecast layout! Learn more

10-Day Weather Forecast

Advertisements
Track Severe Weather on mobile